Airport ID:KBVU
Update Time (UTC):14/11/2019 13:46
Wind Speed (Knots):1
Wind Direction (Magnetic):280
Temperature (°C):8.9
Dew Point (°C):-3.9
Humidity (%):40.8
Altimeter (inHg):30.09
Density Altitude (Feet):
Visibility (Miles):10
Clouds (Hundreds of feet):CLR
Present Weather:
METAR:METAR KBVU 141345Z AUTO 00000KT 10SM CLR 09/M04 A3009 RMK AO2

The data displayed is for advisory purposes only and is not to be used for flight planning or operations.

This page is not automatically refreshed. Reload the page to see current data.